sensor_id;sensor_type;location;lat;lon;timestamp;temperature;humidity
10654;DHT22;5375;51.250;6.776;2023-06-05T00:02:14;22.80;47.00
10654;DHT22;5375;51.250;6.776;2023-06-05T00:04:41;22.70;47.00
10654;DHT22;5375;51.250;6.776;2023-06-05T00:07:09;22.70;47.00
10654;DHT22;5375;51.250;6.776;2023-06-05T00:09:34;22.70;47.00
10654;DHT22;5375;51.250;6.776;2023-06-05T00:12:00;22.70;47.00
10654;DHT22;5375;51.250;6.776;2023-06-05T00:14:29;22.70;47.00
10654;DHT22;5375;51.250;6.776;2023-06-05T00:16:54;22.70;47.00
10654;DHT22;5375;51.250;6.776;2023-06-05T00:19:22;22.70;47.00
10654;DHT22;5375;51.250;6.776;2023-06-05T00:21:48;22.70;47.00
10654;DHT22;5375;51.250;6.776;2023-06-05T00:24:16;22.70;47.10
10654;DHT22;5375;51.250;6.776;2023-06-05T00:26:44;22.70;47.10
10654;DHT22;5375;51.250;6.776;2023-06-05T00:29:10;22.70;47.10
10654;DHT22;5375;51.250;6.776;2023-06-05T00:31:35;22.70;47.10
10654;DHT22;5375;51.250;6.776;2023-06-05T00:34:01;22.70;47.10
10654;DHT22;5375;51.250;6.776;2023-06-05T00:36:29;22.70;47.10
10654;DHT22;5375;51.250;6.776;2023-06-05T00:38:55;22.70;47.30
10654;DHT22;5375;51.250;6.776;2023-06-05T00:41:20;22.70;47.10
10654;DHT22;5375;51.250;6.776;2023-06-05T00:43:46;22.70;47.00
10654;DHT22;5375;51.250;6.776;2023-06-05T00:46:12;22.70;47.10
10654;DHT22;5375;51.250;6.776;2023-06-05T00:48:40;22.70;47.10
10654;DHT22;5375;51.250;6.776;2023-06-05T00:51:06;22.70;47.10
10654;DHT22;5375;51.250;6.776;2023-06-05T00:53:34;22.70;47.10
10654;DHT22;5375;51.250;6.776;2023-06-05T00:56:02;22.70;47.10
10654;DHT22;5375;51.250;6.776;2023-06-05T00:58:30;22.70;47.10
10654;DHT22;5375;51.250;6.776;2023-06-05T01:00:58;22.70;47.10
10654;DHT22;5375;51.250;6.776;2023-06-05T01:03:26;22.70;47.10
10654;DHT22;5375;51.250;6.776;2023-06-05T01:05:58;22.70;47.10
10654;DHT22;5375;51.250;6.776;2023-06-05T01:08:30;22.70;47.10
10654;DHT22;5375;51.250;6.776;2023-06-05T01:10:57;22.70;47.00
10654;DHT22;5375;51.250;6.776;2023-06-05T01:13:29;22.70;47.00
10654;DHT22;5375;51.250;6.776;2023-06-05T01:15:57;22.70;47.00
10654;DHT22;5375;51.250;6.776;2023-06-05T01:18:24;22.70;47.10
10654;DHT22;5375;51.250;6.776;2023-06-05T01:20:50;22.70;47.10
10654;DHT22;5375;51.250;6.776;2023-06-05T01:23:16;22.70;47.10
10654;DHT22;5375;51.250;6.776;2023-06-05T01:25:42;22.70;47.10
10654;DHT22;5375;51.250;6.776;2023-06-05T01:28:17;22.70;47.10
10654;DHT22;5375;51.250;6.776;2023-06-05T01:31:03;22.70;47.10
10654;DHT22;5375;51.250;6.776;2023-06-05T01:33:33;22.70;47.10
10654;DHT22;5375;51.250;6.776;2023-06-05T01:36:09;22.70;47.10
10654;DHT22;5375;51.250;6.776;2023-06-05T01:38:35;22.70;47.10
10654;DHT22;5375;51.250;6.776;2023-06-05T01:41:03;22.70;47.10
10654;DHT22;5375;51.250;6.776;2023-06-05T01:43:30;22.70;47.20
10654;DHT22;5375;51.250;6.776;2023-06-05T01:45:59;22.70;47.20
10654;DHT22;5375;51.250;6.776;2023-06-05T01:48:27;22.70;47.20
10654;DHT22;5375;51.250;6.776;2023-06-05T01:50:57;22.70;47.20
10654;DHT22;5375;51.250;6.776;2023-06-05T01:53:24;22.70;47.20
10654;DHT22;5375;51.250;6.776;2023-06-05T01:55:50;22.70;47.30
10654;DHT22;5375;51.250;6.776;2023-06-05T01:58:18;22.70;47.30
10654;DHT22;5375;51.250;6.776;2023-06-05T02:00:45;22.70;47.30
10654;DHT22;5375;51.250;6.776;2023-06-05T02:03:11;22.70;47.30
10654;DHT22;5375;51.250;6.776;2023-06-05T02:05:37;22.70;46.70
10654;DHT22;5375;51.250;6.776;2023-06-05T02:08:03;22.70;47.30
10654;DHT22;5375;51.250;6.776;2023-06-05T02:10:31;22.70;47.30
10654;DHT22;5375;51.250;6.776;2023-06-05T02:12:56;22.70;47.30
10654;DHT22;5375;51.250;6.776;2023-06-05T02:15:22;22.70;47.30
10654;DHT22;5375;51.250;6.776;2023-06-05T02:17:48;22.70;47.30
10654;DHT22;5375;51.250;6.776;2023-06-05T02:20:24;22.70;47.30
10654;DHT22;5375;51.250;6.776;2023-06-05T02:22:50;22.70;47.30
10654;DHT22;5375;51.250;6.776;2023-06-05T02:25:18;22.70;47.30
10654;DHT22;5375;51.250;6.776;2023-06-05T02:27:43;22.70;47.30
10654;DHT22;5375;51.250;6.776;2023-06-05T02:30:10;22.70;47.30
10654;DHT22;5375;51.250;6.776;2023-06-05T02:32:36;22.70;47.30
10654;DHT22;5375;51.250;6.776;2023-06-05T02:35:07;22.70;47.40
10654;DHT22;5375;51.250;6.776;2023-06-05T02:37:33;22.60;47.30
10654;DHT22;5375;51.250;6.776;2023-06-05T02:40:04;22.70;47.30
10654;DHT22;5375;51.250;6.776;2023-06-05T02:42:30;22.70;47.30
10654;DHT22;5375;51.250;6.776;2023-06-05T02:44:56;22.70;47.30
10654;DHT22;5375;51.250;6.776;2023-06-05T02:47:22;22.70;46.70
10654;DHT22;5375;51.250;6.776;2023-06-05T02:49:49;22.60;47.30
10654;DHT22;5375;51.250;6.776;2023-06-05T02:52:14;22.60;47.30
10654;DHT22;5375;51.250;6.776;2023-06-05T02:54:40;22.70;47.40
10654;DHT22;5375;51.250;6.776;2023-06-05T02:57:06;22.70;47.50
10654;DHT22;5375;51.250;6.776;2023-06-05T02:59:32;22.70;47.40
10654;DHT22;5375;51.250;6.776;2023-06-05T03:01:57;22.70;47.40
10654;DHT22;5375;51.250;6.776;2023-06-05T03:04:23;22.70;47.40
10654;DHT22;5375;51.250;6.776;2023-06-05T03:06:50;22.70;47.40
10654;DHT22;5375;51.250;6.776;2023-06-05T03:09:19;22.70;47.40
10654;DHT22;5375;51.250;6.776;2023-06-05T03:11:44;22.70;47.40
10654;DHT22;5375;51.250;6.776;2023-06-05T03:14:10;22.60;47.30
10654;DHT22;5375;51.250;6.776;2023-06-05T03:16:36;22.60;47.30
10654;DHT22;5375;51.250;6.776;2023-06-05T03:19:09;22.60;48.00
10654;DHT22;5375;51.250;6.776;2023-06-05T03:21:38;22.60;47.30
10654;DHT22;5375;51.250;6.776;2023-06-05T03:24:09;22.60;48.00
10654;DHT22;5375;51.250;6.776;2023-06-05T03:26:36;22.60;47.30
10654;DHT22;5375;51.250;6.776;2023-06-05T03:29:02;22.60;47.30
10654;DHT22;5375;51.250;6.776;2023-06-05T03:31:27;22.60;47.40
10654;DHT22;5375;51.250;6.776;2023-06-05T03:33:53;22.60;47.30
10654;DHT22;5375;51.250;6.776;2023-06-05T03:36:18;22.60;47.40
10654;DHT22;5375;51.250;6.776;2023-06-05T03:38:44;22.60;47.30
10654;DHT22;5375;51.250;6.776;2023-06-05T03:41:11;22.60;47.30
10654;DHT22;5375;51.250;6.776;2023-06-05T03:43:37;22.60;47.30
10654;DHT22;5375;51.250;6.776;2023-06-05T03:46:09;22.60;47.40
10654;DHT22;5375;51.250;6.776;2023-06-05T03:48:35;22.60;47.40
10654;DHT22;5375;51.250;6.776;2023-06-05T03:51:01;22.60;47.40
10654;DHT22;5375;51.250;6.776;2023-06-05T03:53:27;22.60;47.40
10654;DHT22;5375;51.250;6.776;2023-06-05T03:55:55;22.60;47.40
10654;DHT22;5375;51.250;6.776;2023-06-05T03:58:22;22.60;47.40
10654;DHT22;5375;51.250;6.776;2023-06-05T04:00:48;22.60;47.40
10654;DHT22;5375;51.250;6.776;2023-06-05T04:03:14;22.60;47.40
10654;DHT22;5375;51.250;6.776;2023-06-05T04:05:41;22.60;47.40
10654;DHT22;5375;51.250;6.776;2023-06-05T04:08:08;22.60;47.50
10654;DHT22;5375;51.250;6.776;2023-06-05T04:10:38;22.60;47.50
10654;DHT22;5375;51.250;6.776;2023-06-05T04:13:04;22.60;47.40
10654;DHT22;5375;51.250;6.776;2023-06-05T04:15:29;22.60;46.90
10654;DHT22;5375;51.250;6.776;2023-06-05T04:17:56;22.60;47.50
10654;DHT22;5375;51.250;6.776;2023-06-05T04:20:23;22.60;47.50
10654;DHT22;5375;51.250;6.776;2023-06-05T04:22:50;22.60;47.50
10654;DHT22;5375;51.250;6.776;2023-06-05T04:25:21;22.70;47.60
10654;DHT22;5375;51.250;6.776;2023-06-05T04:33:13;22.70;47.30
10654;DHT22;5375;51.250;6.776;2023-06-05T04:35:45;22.70;47.40
10654;DHT22;5375;51.250;6.776;2023-06-05T04:38:11;22.70;47.30
10654;DHT22;5375;51.250;6.776;2023-06-05T04:40:37;22.70;47.20
10654;DHT22;5375;51.250;6.776;2023-06-05T04:43:03;22.60;47.10
10654;DHT22;5375;51.250;6.776;2023-06-05T04:45:31;22.60;47.20
10654;DHT22;5375;51.250;6.776;2023-06-05T04:47:58;22.70;47.20
10654;DHT22;5375;51.250;6.776;2023-06-05T04:50:27;22.70;47.20
10654;DHT22;5375;51.250;6.776;2023-06-05T04:52:57;22.70;47.20
10654;DHT22;5375;51.250;6.776;2023-06-05T04:55:25;22.70;47.20
10654;DHT22;5375;51.250;6.776;2023-06-05T04:57:53;22.70;47.20
10654;DHT22;5375;51.250;6.776;2023-06-05T05:00:26;22.70;47.20
10654;DHT22;5375;51.250;6.776;2023-06-05T05:02:52;22.70;47.30
10654;DHT22;5375;51.250;6.776;2023-06-05T05:05:19;22.70;47.10
10654;DHT22;5375;51.250;6.776;2023-06-05T05:07:45;22.70;47.10
10654;DHT22;5375;51.250;6.776;2023-06-05T05:10:11;22.70;47.10
10654;DHT22;5375;51.250;6.776;2023-06-05T05:12:38;22.70;47.00
10654;DHT22;5375;51.250;6.776;2023-06-05T05:15:04;22.70;47.00
10654;DHT22;5375;51.250;6.776;2023-06-05T05:17:31;22.70;47.00
10654;DHT22;5375;51.250;6.776;2023-06-05T05:19:58;22.70;47.00
10654;DHT22;5375;51.250;6.776;2023-06-05T05:22:26;22.80;46.40
10654;DHT22;5375;51.250;6.776;2023-06-05T05:24:53;22.70;46.90
10654;DHT22;5375;51.250;6.776;2023-06-05T05:27:20;22.80;47.60
10654;DHT22;5375;51.250;6.776;2023-06-05T05:29:48;22.80;46.90
10654;DHT22;5375;51.250;6.776;2023-06-05T05:32:16;22.80;46.90
10654;DHT22;5375;51.250;6.776;2023-06-05T05:34:44;22.80;46.90
10654;DHT22;5375;51.250;6.776;2023-06-05T05:37:12;22.80;46.90
10654;DHT22;5375;51.250;6.776;2023-06-05T05:39:41;22.80;46.90
10654;DHT22;5375;51.250;6.776;2023-06-05T05:42:09;22.80;46.90
10654;DHT22;5375;51.250;6.776;2023-06-05T05:44:37;22.80;46.90
10654;DHT22;5375;51.250;6.776;2023-06-05T05:47:08;22.80;46.80
10654;DHT22;5375;51.250;6.776;2023-06-05T05:49:34;22.80;46.80
10654;DHT22;5375;51.250;6.776;2023-06-05T05:52:02;22.80;46.80
10654;DHT22;5375;51.250;6.776;2023-06-05T05:54:31;22.80;46.80
10654;DHT22;5375;51.250;6.776;2023-06-05T05:56:58;22.80;46.80
10654;DHT22;5375;51.250;6.776;2023-06-05T05:59:25;22.80;46.80
10654;DHT22;5375;51.250;6.776;2023-06-05T06:01:52;22.80;46.80
10654;DHT22;5375;51.250;6.776;2023-06-05T06:04:19;22.80;46.80
10654;DHT22;5375;51.250;6.776;2023-06-05T06:06:46;22.90;46.80
10654;DHT22;5375;51.250;6.776;2023-06-05T06:09:17;22.90;46.90
10654;DHT22;5375;51.250;6.776;2023-06-05T06:11:44;22.90;46.80
10654;DHT22;5375;51.250;6.776;2023-06-05T06:14:11;22.80;46.80
10654;DHT22;5375;51.250;6.776;2023-06-05T06:16:37;22.80;46.80
10654;DHT22;5375;51.250;6.776;2023-06-05T06:19:03;22.80;46.80
10654;DHT22;5375;51.250;6.776;2023-06-05T06:21:29;22.80;46.80
10654;DHT22;5375;51.250;6.776;2023-06-05T06:23:55;22.80;46.80
10654;DHT22;5375;51.250;6.776;2023-06-05T06:26:22;22.80;46.80
10654;DHT22;5375;51.250;6.776;2023-06-05T06:28:50;22.80;46.80
10654;DHT22;5375;51.250;6.776;2023-06-05T06:31:17;22.90;46.80
10654;DHT22;5375;51.250;6.776;2023-06-05T06:33:42;22.80;46.80
10654;DHT22;5375;51.250;6.776;2023-06-05T06:36:10;22.90;46.90
10654;DHT22;5375;51.250;6.776;2023-06-05T06:38:36;22.90;46.90
10654;DHT22;5375;51.250;6.776;2023-06-05T06:41:01;22.90;46.80
10654;DHT22;5375;51.250;6.776;2023-06-05T06:43:27;22.90;46.80
10654;DHT22;5375;51.250;6.776;2023-06-05T06:45:53;22.90;46.80
10654;DHT22;5375;51.250;6.776;2023-06-05T06:48:18;22.90;46.80
10654;DHT22;5375;51.250;6.776;2023-06-05T06:50:45;22.90;46.80
10654;DHT22;5375;51.250;6.776;2023-06-05T06:53:11;22.90;46.80
10654;DHT22;5375;51.250;6.776;2023-06-05T06:55:37;22.90;46.80
10654;DHT22;5375;51.250;6.776;2023-06-05T06:58:04;22.90;46.80
10654;DHT22;5375;51.250;6.776;2023-06-05T07:00:30;22.90;46.70
10654;DHT22;5375;51.250;6.776;2023-06-05T07:02:56;22.90;46.80
10654;DHT22;5375;51.250;6.776;2023-06-05T07:05:22;22.90;46.70
10654;DHT22;5375;51.250;6.776;2023-06-05T07:07:48;22.90;46.70
10654;DHT22;5375;51.250;6.776;2023-06-05T07:10:13;22.90;46.70
10654;DHT22;5375;51.250;6.776;2023-06-05T07:12:39;22.90;46.70
10654;DHT22;5375;51.250;6.776;2023-06-05T07:15:05;22.90;46.70
10654;DHT22;5375;51.250;6.776;2023-06-05T07:17:31;22.90;46.70
10654;DHT22;5375;51.250;6.776;2023-06-05T07:19:57;22.90;46.70
10654;DHT22;5375;51.250;6.776;2023-06-05T07:22:23;23.00;46.70
10654;DHT22;5375;51.250;6.776;2023-06-05T07:24:50;23.00;46.70
10654;DHT22;5375;51.250;6.776;2023-06-05T07:27:17;23.00;46.70
10654;DHT22;5375;51.250;6.776;2023-06-05T07:29:42;23.00;46.70
10654;DHT22;5375;51.250;6.776;2023-06-05T07:32:08;23.00;46.70
10654;DHT22;5375;51.250;6.776;2023-06-05T07:34:34;23.00;46.70
10654;DHT22;5375;51.250;6.776;2023-06-05T07:37:00;23.00;46.70
10654;DHT22;5375;51.250;6.776;2023-06-05T07:39:26;23.00;46.10
10654;DHT22;5375;51.250;6.776;2023-06-05T07:41:52;23.00;46.70
10654;DHT22;5375;51.250;6.776;2023-06-05T07:44:19;23.00;46.70
10654;DHT22;5375;51.250;6.776;2023-06-05T07:46:47;23.00;46.70
10654;DHT22;5375;51.250;6.776;2023-06-05T07:49:13;23.00;46.80
10654;DHT22;5375;51.250;6.776;2023-06-05T07:51:41;23.00;46.80
10654;DHT22;5375;51.250;6.776;2023-06-05T07:54:11;23.00;46.80
10654;DHT22;5375;51.250;6.776;2023-06-05T07:56:37;23.00;46.80
10654;DHT22;5375;51.250;6.776;2023-06-05T07:59:05;23.00;46.80
10654;DHT22;5375;51.250;6.776;2023-06-05T08:01:32;23.00;46.80
10654;DHT22;5375;51.250;6.776;2023-06-05T08:04:02;23.00;46.80
10654;DHT22;5375;51.250;6.776;2023-06-05T08:06:28;23.00;46.90
10654;DHT22;5375;51.250;6.776;2023-06-05T08:08:55;23.00;46.80
10654;DHT22;5375;51.250;6.776;2023-06-05T08:11:21;23.00;46.90
10654;DHT22;5375;51.250;6.776;2023-06-05T08:13:46;23.00;46.90
10654;DHT22;5375;51.250;6.776;2023-06-05T08:16:12;23.00;46.80
10654;DHT22;5375;51.250;6.776;2023-06-05T08:18:38;23.00;46.90
10654;DHT22;5375;51.250;6.776;2023-06-05T08:21:03;23.00;46.90
10654;DHT22;5375;51.250;6.776;2023-06-05T08:23:29;23.00;46.90
10654;DHT22;5375;51.250;6.776;2023-06-05T08:25:55;23.00;46.90
10654;DHT22;5375;51.250;6.776;2023-06-05T08:28:21;23.00;46.90
10654;DHT22;5375;51.250;6.776;2023-06-05T08:30:47;23.00;47.00
10654;DHT22;5375;51.250;6.776;2023-06-05T08:33:12;23.00;47.00
10654;DHT22;5375;51.250;6.776;2023-06-05T08:35:40;23.00;47.00
10654;DHT22;5375;51.250;6.776;2023-06-05T08:38:06;23.00;46.40
10654;DHT22;5375;51.250;6.776;2023-06-05T08:40:32;23.00;46.90
10654;DHT22;5375;51.250;6.776;2023-06-05T08:43:00;23.00;46.90
10654;DHT22;5375;51.250;6.776;2023-06-05T08:45:26;23.00;47.00
10654;DHT22;5375;51.250;6.776;2023-06-05T08:47:54;23.00;47.00
10654;DHT22;5375;51.250;6.776;2023-06-05T08:50:24;23.00;47.00
10654;DHT22;5375;51.250;6.776;2023-06-05T08:52:52;23.00;47.00
10654;DHT22;5375;51.250;6.776;2023-06-05T08:55:18;23.00;47.00
10654;DHT22;5375;51.250;6.776;2023-06-05T08:57:44;23.00;47.00
10654;DHT22;5375;51.250;6.776;2023-06-05T09:00:10;23.00;47.00
10654;DHT22;5375;51.250;6.776;2023-06-05T09:02:38;23.00;47.00
10654;DHT22;5375;51.250;6.776;2023-06-05T09:05:05;23.00;47.00
10654;DHT22;5375;51.250;6.776;2023-06-05T09:07:32;23.00;47.00
10654;DHT22;5375;51.250;6.776;2023-06-05T09:09:57;23.00;47.00
10654;DHT22;5375;51.250;6.776;2023-06-05T09:12:23;23.00;47.00
10654;DHT22;5375;51.250;6.776;2023-06-05T09:14:51;23.00;47.00
10654;DHT22;5375;51.250;6.776;2023-06-05T09:17:17;23.00;47.00
10654;DHT22;5375;51.250;6.776;2023-06-05T09:19:43;23.00;47.00
10654;DHT22;5375;51.250;6.776;2023-06-05T09:22:11;23.00;47.00
10654;DHT22;5375;51.250;6.776;2023-06-05T09:24:38;23.10;47.00
10654;DHT22;5375;51.250;6.776;2023-06-05T09:27:08;23.10;47.00
10654;DHT22;5375;51.250;6.776;2023-06-05T09:29:39;23.10;47.00
10654;DHT22;5375;51.250;6.776;2023-06-05T09:34:39;23.10;47.00
10654;DHT22;5375;51.250;6.776;2023-06-05T09:37:07;23.10;47.00
10654;DHT22;5375;51.250;6.776;2023-06-05T09:39:36;23.10;47.00
10654;DHT22;5375;51.250;6.776;2023-06-05T09:42:02;23.20;47.00
10654;DHT22;5375;51.250;6.776;2023-06-05T09:44:29;23.10;47.00
10654;DHT22;5375;51.250;6.776;2023-06-05T09:52:01;23.20;47.10
10654;DHT22;5375;51.250;6.776;2023-06-05T09:54:28;23.20;47.10
10654;DHT22;5375;51.250;6.776;2023-06-05T09:57:02;23.20;47.10
10654;DHT22;5375;51.250;6.776;2023-06-05T09:59:34;23.20;47.10
10654;DHT22;5375;51.250;6.776;2023-06-05T10:02:03;23.20;47.10
10654;DHT22;5375;51.250;6.776;2023-06-05T10:04:32;23.20;47.10
10654;DHT22;5375;51.250;6.776;2023-06-05T10:07:01;23.20;47.10
10654;DHT22;5375;51.250;6.776;2023-06-05T10:09:29;23.20;47.10
10654;DHT22;5375;51.250;6.776;2023-06-05T10:11:57;23.20;47.10
10654;DHT22;5375;51.250;6.776;2023-06-05T10:14:22;23.20;47.10
10654;DHT22;5375;51.250;6.776;2023-06-05T10:16:49;23.20;47.10
10654;DHT22;5375;51.250;6.776;2023-06-05T10:19:20;22.00;46.60
10654;DHT22;5375;51.250;6.776;2023-06-05T10:21:47;23.20;47.10
10654;DHT22;5375;51.250;6.776;2023-06-05T10:24:27;23.20;47.20
10654;DHT22;5375;51.250;6.776;2023-06-05T10:29:43;23.20;47.20
10654;DHT22;5375;51.250;6.776;2023-06-05T10:38:17;23.20;47.20
10654;DHT22;5375;51.250;6.776;2023-06-05T10:40:45;23.20;47.30
10654;DHT22;5375;51.250;6.776;2023-06-05T10:45:53;23.10;47.30
10654;DHT22;5375;51.250;6.776;2023-06-05T10:48:19;23.10;47.30
10654;DHT22;5375;51.250;6.776;2023-06-05T10:50:45;23.10;47.30
10654;DHT22;5375;51.250;6.776;2023-06-05T10:53:42;23.10;47.30
10654;DHT22;5375;51.250;6.776;2023-06-05T10:56:08;23.10;47.30
10654;DHT22;5375;51.250;6.776;2023-06-05T10:58:33;23.10;47.40
10654;DHT22;5375;51.250;6.776;2023-06-05T11:01:18;23.10;47.40
10654;DHT22;5375;51.250;6.776;2023-06-05T11:06:18;23.10;47.40
10654;DHT22;5375;51.250;6.776;2023-06-05T11:09:13;23.10;47.40
10654;DHT22;5375;51.250;6.776;2023-06-05T11:12:06;23.10;47.40
10654;DHT22;5375;51.250;6.776;2023-06-05T11:14:47;23.10;47.40
10654;DHT22;5375;51.250;6.776;2023-06-05T11:17:33;23.10;47.50
10654;DHT22;5375;51.250;6.776;2023-06-05T11:30:23;23.10;47.50
10654;DHT22;5375;51.250;6.776;2023-06-05T11:32:54;23.10;47.50
10654;DHT22;5375;51.250;6.776;2023-06-05T11:35:25;23.10;47.50
10654;DHT22;5375;51.250;6.776;2023-06-05T11:38:15;23.10;47.50
10654;DHT22;5375;51.250;6.776;2023-06-05T11:40:43;23.10;47.50
10654;DHT22;5375;51.250;6.776;2023-06-05T11:43:13;23.10;47.50
10654;DHT22;5375;51.250;6.776;2023-06-05T11:45:41;23.10;47.50
10654;DHT22;5375;51.250;6.776;2023-06-05T11:48:08;23.10;47.50
10654;DHT22;5375;51.250;6.776;2023-06-05T11:50:35;23.10;47.50
10654;DHT22;5375;51.250;6.776;2023-06-05T11:53:05;23.00;47.50
10654;DHT22;5375;51.250;6.776;2023-06-05T11:55:31;23.10;47.50
10654;DHT22;5375;51.250;6.776;2023-06-05T11:58:28;23.10;47.50
10654;DHT22;5375;51.250;6.776;2023-06-05T12:01:13;23.10;47.50
10654;DHT22;5375;51.250;6.776;2023-06-05T12:04:04;23.10;47.50
10654;DHT22;5375;51.250;6.776;2023-06-05T12:06:30;23.10;47.60
10654;DHT22;5375;51.250;6.776;2023-06-05T12:09:09;23.10;47.50
10654;DHT22;5375;51.250;6.776;2023-06-05T12:11:36;23.20;47.60
10654;DHT22;5375;51.250;6.776;2023-06-05T12:14:03;23.20;47.60
10654;DHT22;5375;51.250;6.776;2023-06-05T12:16:37;23.20;47.60
10654;DHT22;5375;51.250;6.776;2023-06-05T12:19:17;23.20;47.60
10654;DHT22;5375;51.250;6.776;2023-06-05T12:21:47;23.20;47.60
10654;DHT22;5375;51.250;6.776;2023-06-05T12:24:14;23.20;47.60
10654;DHT22;5375;51.250;6.776;2023-06-05T12:26:53;23.20;47.60
10654;DHT22;5375;51.250;6.776;2023-06-05T12:29:20;23.20;47.60
10654;DHT22;5375;51.250;6.776;2023-06-05T12:31:49;23.20;47.60
10654;DHT22;5375;51.250;6.776;2023-06-05T12:34:15;23.20;47.60
10654;DHT22;5375;51.250;6.776;2023-06-05T12:36:42;23.20;47.70
10654;DHT22;5375;51.250;6.776;2023-06-05T12:39:14;23.20;47.70
10654;DHT22;5375;51.250;6.776;2023-06-05T12:41:41;23.20;47.60
10654;DHT22;5375;51.250;6.776;2023-06-05T12:44:07;23.20;47.60
10654;DHT22;5375;51.250;6.776;2023-06-05T12:46:34;23.20;47.60
10654;DHT22;5375;51.250;6.776;2023-06-05T12:49:01;23.20;47.60
10654;DHT22;5375;51.250;6.776;2023-06-05T12:51:27;23.30;47.60
10654;DHT22;5375;51.250;6.776;2023-06-05T12:53:54;23.30;47.60
10654;DHT22;5375;51.250;6.776;2023-06-05T12:56:20;23.30;47.60
10654;DHT22;5375;51.250;6.776;2023-06-05T12:58:56;23.30;47.60
10654;DHT22;5375;51.250;6.776;2023-06-05T13:01:23;23.30;47.60
10654;DHT22;5375;51.250;6.776;2023-06-05T13:03:50;23.30;47.60
10654;DHT22;5375;51.250;6.776;2023-06-05T13:06:16;23.30;47.60
10654;DHT22;5375;51.250;6.776;2023-06-05T13:08:42;23.30;47.60
10654;DHT22;5375;51.250;6.776;2023-06-05T13:11:07;23.30;47.70
10654;DHT22;5375;51.250;6.776;2023-06-05T13:13:33;23.30;47.60
10654;DHT22;5375;51.250;6.776;2023-06-05T13:15:59;23.30;47.60
10654;DHT22;5375;51.250;6.776;2023-06-05T13:18:27;23.30;47.70
10654;DHT22;5375;51.250;6.776;2023-06-05T13:20:52;23.30;47.10
10654;DHT22;5375;51.250;6.776;2023-06-05T13:23:21;23.30;47.70
10654;DHT22;5375;51.250;6.776;2023-06-05T13:25:47;23.30;47.70
10654;DHT22;5375;51.250;6.776;2023-06-05T13:28:12;23.30;47.70
10654;DHT22;5375;51.250;6.776;2023-06-05T13:30:38;23.30;47.70
10654;DHT22;5375;51.250;6.776;2023-06-05T13:33:03;23.30;47.70
10654;DHT22;5375;51.250;6.776;2023-06-05T13:35:29;23.30;47.20
10654;DHT22;5375;51.250;6.776;2023-06-05T13:37:55;23.30;47.80
10654;DHT22;5375;51.250;6.776;2023-06-05T13:40:20;23.30;47.80
10654;DHT22;5375;51.250;6.776;2023-06-05T13:42:46;23.30;47.80
10654;DHT22;5375;51.250;6.776;2023-06-05T13:45:12;23.30;47.80
10654;DHT22;5375;51.250;6.776;2023-06-05T13:47:38;23.30;47.80
10654;DHT22;5375;51.250;6.776;2023-06-05T13:50:05;23.30;47.80
10654;DHT22;5375;51.250;6.776;2023-06-05T13:52:30;23.30;47.80
10654;DHT22;5375;51.250;6.776;2023-06-05T13:54:57;23.30;47.80
10654;DHT22;5375;51.250;6.776;2023-06-05T13:57:23;23.40;47.80
10654;DHT22;5375;51.250;6.776;2023-06-05T13:59:49;23.40;47.80
10654;DHT22;5375;51.250;6.776;2023-06-05T14:02:14;23.40;47.90
10654;DHT22;5375;51.250;6.776;2023-06-05T14:04:40;23.40;47.80
10654;DHT22;5375;51.250;6.776;2023-06-05T14:07:06;23.40;47.30
10654;DHT22;5375;51.250;6.776;2023-06-05T14:09:31;23.40;47.80
10654;DHT22;5375;51.250;6.776;2023-06-05T14:11:58;23.40;47.80
10654;DHT22;5375;51.250;6.776;2023-06-05T14:14:24;23.40;47.80
10654;DHT22;5375;51.250;6.776;2023-06-05T14:16:53;23.40;47.80
10654;DHT22;5375;51.250;6.776;2023-06-05T14:19:18;23.40;47.80
10654;DHT22;5375;51.250;6.776;2023-06-05T14:21:44;23.40;47.80
10654;DHT22;5375;51.250;6.776;2023-06-05T14:24:10;23.40;47.90
10654;DHT22;5375;51.250;6.776;2023-06-05T14:26:36;23.40;48.40
10654;DHT22;5375;51.250;6.776;2023-06-05T14:29:02;23.40;47.80
10654;DHT22;5375;51.250;6.776;2023-06-05T14:31:28;23.50;47.80
10654;DHT22;5375;51.250;6.776;2023-06-05T14:33:55;23.50;47.80
10654;DHT22;5375;51.250;6.776;2023-06-05T14:36:20;23.50;47.80
10654;DHT22;5375;51.250;6.776;2023-06-05T14:38:46;23.50;47.80
10654;DHT22;5375;51.250;6.776;2023-06-05T14:41:12;23.50;47.90
10654;DHT22;5375;51.250;6.776;2023-06-05T14:43:38;23.50;47.80
10654;DHT22;5375;51.250;6.776;2023-06-05T14:46:03;23.50;47.90
10654;DHT22;5375;51.250;6.776;2023-06-05T14:48:30;23.50;48.00
10654;DHT22;5375;51.250;6.776;2023-06-05T14:50:56;23.50;48.00
10654;DHT22;5375;51.250;6.776;2023-06-05T14:53:23;23.50;48.00
10654;DHT22;5375;51.250;6.776;2023-06-05T14:55:49;23.40;47.90
10654;DHT22;5375;51.250;6.776;2023-06-05T14:58:15;23.50;48.00
10654;DHT22;5375;51.250;6.776;2023-06-05T15:00:43;23.40;48.00
10654;DHT22;5375;51.250;6.776;2023-06-05T15:03:08;23.40;48.00
10654;DHT22;5375;51.250;6.776;2023-06-05T15:05:34;23.40;48.00
10654;DHT22;5375;51.250;6.776;2023-06-05T15:08:00;23.40;48.00
10654;DHT22;5375;51.250;6.776;2023-06-05T15:10:26;23.40;48.00
10654;DHT22;5375;51.250;6.776;2023-06-05T15:12:52;23.40;48.00
10654;DHT22;5375;51.250;6.776;2023-06-05T15:15:25;23.40;48.00
10654;DHT22;5375;51.250;6.776;2023-06-05T15:17:51;23.40;48.10
10654;DHT22;5375;51.250;6.776;2023-06-05T15:20:20;23.40;48.00
10654;DHT22;5375;51.250;6.776;2023-06-05T15:22:47;23.40;48.00
10654;DHT22;5375;51.250;6.776;2023-06-05T15:25:12;23.40;48.00
10654;DHT22;5375;51.250;6.776;2023-06-05T15:27:38;23.40;48.00
10654;DHT22;5375;51.250;6.776;2023-06-05T15:30:05;23.40;48.10
10654;DHT22;5375;51.250;6.776;2023-06-05T15:32:31;23.40;48.00
10654;DHT22;5375;51.250;6.776;2023-06-05T15:34:57;23.40;48.00
10654;DHT22;5375;51.250;6.776;2023-06-05T15:37:23;23.40;48.10
10654;DHT22;5375;51.250;6.776;2023-06-05T15:39:49;23.40;48.00
10654;DHT22;5375;51.250;6.776;2023-06-05T15:42:18;23.40;48.10
10654;DHT22;5375;51.250;6.776;2023-06-05T15:44:52;23.40;48.20
10654;DHT22;5375;51.250;6.776;2023-06-05T15:47:18;23.40;48.10
10654;DHT22;5375;51.250;6.776;2023-06-05T15:49:44;23.40;48.10
10654;DHT22;5375;51.250;6.776;2023-06-05T15:52:11;23.40;48.10
10654;DHT22;5375;51.250;6.776;2023-06-05T15:54:36;23.40;48.10
10654;DHT22;5375;51.250;6.776;2023-06-05T15:57:08;23.40;48.10
10654;DHT22;5375;51.250;6.776;2023-06-05T15:59:34;23.40;48.10
10654;DHT22;5375;51.250;6.776;2023-06-05T16:02:01;23.40;48.10
10654;DHT22;5375;51.250;6.776;2023-06-05T16:04:27;23.40;48.10
10654;DHT22;5375;51.250;6.776;2023-06-05T16:06:52;23.40;48.10
10654;DHT22;5375;51.250;6.776;2023-06-05T16:09:18;23.40;48.20
10654;DHT22;5375;51.250;6.776;2023-06-05T16:11:44;23.40;48.10
10654;DHT22;5375;51.250;6.776;2023-06-05T16:14:09;23.40;48.20
10654;DHT22;5375;51.250;6.776;2023-06-05T16:16:35;23.40;48.10
10654;DHT22;5375;51.250;6.776;2023-06-05T16:19:01;23.40;48.10
10654;DHT22;5375;51.250;6.776;2023-06-05T16:21:28;23.40;48.10
10654;DHT22;5375;51.250;6.776;2023-06-05T16:23:55;23.40;48.10
10654;DHT22;5375;51.250;6.776;2023-06-05T16:26:21;23.40;48.70